^^
Station Historical Data
Daily Summary for March 21, 2017 Units:  English    Metric   Both
« Previous Day
Next Day »
Daily Weekly Monthly Yearly Custom
  High: Low: Average:
Temperature: 59.0 °F 37.8 °F 46.9 °F
Dew Point: 34.9 °F 20.7 °F 29.1 °F
Humidity: 70% 36% 51%
Wind Speed: 3.0mph 0.0mph 0.4mph
Wind Gust: 8.0mph - -
Wind- - WSW
Pressure: 30.00 in 29.82 in -
Precipitation: 0.00 in    
Historical Graphs
 
 
Tabular Data for March 21, 2017
Time Temperature Dew Point Pressure Wind Wind Speed Wind Gust Humidity Rainfall Rate (Hourly) Conditions
00:00 42.3 °F 25.0 °F 30.00 in Calm     50% 0.00 in BKN
00:30 41.9 °F 26.0 °F 30.00 in Calm     53% 0.00 in OVC
00:45 42.0 °F 25.6 °F 29.99 in Calm   2.0 mph 52% 0.00 in OVC
01:00 42.3 °F 25.9 °F 29.99 in Calm   3.0 mph 52% 0.00 in OVC
02:15 42.2 °F 24.8 °F 29.97 in Calm   1.0 mph 50% 0.00 in OVC
02:30 41.9 °F 25.1 °F 29.96 in Calm   2.0 mph 51% 0.00 in OVC
02:45 41.5 °F 25.1 °F 29.96 in Calm   1.0 mph 52% 0.00 in OVC
03:00 40.3 °F 25.8 °F 29.95 in Calm   2.0 mph 56% 0.00 in OVC
03:15 40.4 °F 25.1 °F 29.96 in Calm   1.0 mph 54% 0.00 in BKN
03:30 39.2 °F 26.1 °F 29.95 in Calm   1.0 mph 59% 0.00 in BKN
03:45 39.0 °F 26.3 °F 29.94 in Calm   1.0 mph 60% 0.00 in BKN
04:00 37.9 °F 26.4 °F 29.94 in Calm     63% 0.00 in BKN
04:15 38.2 °F 27.5 °F 29.94 in Calm     65% 0.00 in SCT
04:30 38.0 °F 27.3 °F 29.94 in Calm     65% 0.00 in SCT
04:45 37.8 °F 27.5 °F 29.95 in Calm   1.0 mph 66% 0.00 in SCT
05:00 38.5 °F 26.6 °F 29.95 in Calm   1.0 mph 62% 0.00 in SCT
05:15 39.1 °F 26.8 °F 29.94 in Calm     61% 0.00 in SCT
05:30 39.9 °F 26.7 °F 29.93 in Calm   1.0 mph 59% 0.00 in SCT
05:45 40.5 °F 26.8 °F 29.94 in Calm   1.0 mph 58% 0.00 in SCT
06:00 39.5 °F 27.5 °F 29.94 in Calm   1.0 mph 62% 0.00 in SCT
06:15 39.6 °F 27.2 °F 29.94 in Calm   1.0 mph 61% 0.00 in SCT
06:30 40.0 °F 27.2 °F 29.94 in Calm   2.0 mph 60% 0.00 in SCT
06:45 40.1 °F 27.3 °F 29.93 in Calm   1.0 mph 60% 0.00 in SCT
07:00 40.1 °F 27.3 °F 29.94 in Calm   1.0 mph 60% 0.00 in SCT
07:15 39.8 °F 27.1 °F 29.93 in Calm   1.0 mph 60% 0.00 in BKN
07:30 39.7 °F 27.7 °F 29.93 in Calm     62% 0.00 in BKN
07:45 39.7 °F 27.7 °F 29.94 in Calm   1.0 mph 62% 0.00 in BKN
08:00 39.5 °F 30.2 °F 29.95 in Calm   2.0 mph 69% 0.00 in BKN
08:15 39.5 °F 30.5 °F 29.94 in Calm   1.0 mph 70% 0.00 in BKN
08:30 39.7 °F 30.7 °F 29.95 in Calm   1.0 mph 70% 0.00 in BKN
08:45 39.9 °F 29.8 °F 29.95 in Calm   2.0 mph 67% 0.00 in BKN
09:00 40.3 °F 29.5 °F 29.95 in Calm   2.0 mph 65% 0.00 in BKN
09:15 40.8 °F 28.8 °F 29.94 in Calm   2.0 mph 62% 0.00 in BKN
09:30 41.6 °F 28.3 °F 29.94 in Calm   1.0 mph 59% 0.00 in BKN
09:45 42.4 °F 28.2 °F 29.94 in Calm   1.0 mph 57% 0.00 in BKN
10:00 43.1 °F 27.6 °F 29.94 in Calm   1.0 mph 54% 0.00 in BKN
10:15 43.5 °F 27.9 °F 29.95 in Calm   2.0 mph 54% 0.00 in BKN
10:30 43.6 °F 27.6 °F 29.95 in Calm   3.0 mph 53% 0.00 in BKN
10:45 43.3 °F 26.4 °F 29.95 in WNW 1.0 mph 3.0 mph 51% 0.00 in BKN
11:00 44.1 °F 26.6 °F 29.95 in Calm   3.0 mph 50% 0.00 in BKN
11:15 45.1 °F 27.0 °F 29.95 in Calm   2.0 mph 49% 0.00 in BKN
11:30 46.1 °F 27.0 °F 29.94 in NW 2.0 mph 4.0 mph 47% 0.00 in BKN
11:45 46.1 °F 28.0 °F 29.94 in West 1.0 mph 3.0 mph 49% 0.00 in BKN
12:00 47.3 °F 28.1 °F 29.94 in WSW 1.0 mph 4.0 mph 47% 0.00 in BKN
12:15 47.5 °F 27.7 °F 29.94 in Calm   4.0 mph 46% 0.00 in BKN
12:30 49.0 °F 28.6 °F 29.93 in SW 1.0 mph 6.0 mph 45% 0.00 in BKN
12:45 49.2 °F 29.3 °F 29.93 in SSW 1.0 mph 6.0 mph 46% 0.00 in BKN
13:00 50.9 °F 30.9 °F 29.93 in WSW 1.0 mph 4.0 mph 46% 0.00 in BKN
13:15 51.0 °F 30.4 °F 29.92 in Calm   5.0 mph 45% 0.00 in CLR
13:30 52.5 °F 30.1 °F 29.92 in South 2.0 mph 6.0 mph 42% 0.00 in CLR
13:45 51.7 °F 29.9 °F 29.91 in Calm   6.0 mph 43% 0.00 in CLR
14:00 53.4 °F 30.9 °F 29.90 in SE 1.0 mph 4.0 mph 42% 0.00 in CLR
14:15 53.1 °F 30.6 °F 29.89 in WSW 1.0 mph 5.0 mph 42% 0.00 in CLR
14:30 53.6 °F 30.5 °F 29.89 in Calm   5.0 mph 41% 0.00 in CLR
14:45 54.3 °F 31.7 °F 29.88 in SW 1.0 mph 5.0 mph 42% 0.00 in CLR
15:00 54.8 °F 31.5 °F 29.87 in WSW 2.0 mph 7.0 mph 41% 0.00 in CLR
15:15 55.6 °F 32.2 °F 29.87 in Calm   5.0 mph 41% 0.00 in CLR
15:30 56.5 °F 32.5 °F 29.86 in Calm   4.0 mph 40% 0.00 in CLR
15:45 56.8 °F 33.3 °F 29.85 in WSW 2.0 mph 5.0 mph 41% 0.00 in CLR
16:00 57.6 °F 33.4 °F 29.85 in SSW 2.0 mph 5.0 mph 40% 0.00 in CLR
16:30 58.5 °F 34.2 °F 29.83 in South 1.0 mph 6.0 mph 40% 0.00 in FEW
16:45 57.9 °F 34.3 °F 29.83 in West 1.0 mph 7.0 mph 41% 0.00 in FEW
17:00 58.3 °F 34.1 °F 29.82 in SW 1.0 mph 7.0 mph 40% 0.00 in FEW
17:15 58.6 °F 34.9 °F 29.82 in Calm   8.0 mph 41% 0.00 in CLR
17:30 58.8 °F 34.5 °F 29.83 in West 1.0 mph 5.0 mph 40% 0.00 in CLR
17:45 59.0 °F 34.7 °F 29.83 in Calm   4.0 mph 40% 0.00 in CLR
18:00 58.0 °F 33.8 °F 29.83 in WNW 1.0 mph 6.0 mph 40% 0.00 in CLR
18:15 57.8 °F 33.6 °F 29.84 in West 1.0 mph 5.0 mph 40% 0.00 in FEW
18:30 56.9 °F 34.0 °F 29.84 in South 2.0 mph 8.0 mph 42% 0.00 in FEW
18:45 56.3 °F 33.5 °F 29.84 in SSW 2.0 mph 8.0 mph 42% 0.00 in FEW
19:00 55.3 °F 33.1 °F 29.85 in SW 3.0 mph 7.0 mph 43% 0.00 in FEW
19:15 54.1 °F 33.2 °F 29.85 in SW 1.0 mph 6.0 mph 45% 0.00 in FEW
19:30 53.2 °F 33.0 °F 29.85 in SSW 1.0 mph 6.0 mph 46% 0.00 in FEW
19:45 52.5 °F 32.8 °F 29.86 in Calm   3.0 mph 47% 0.00 in FEW
20:00 51.4 °F 33.4 °F 29.86 in Calm   2.0 mph 50% 0.00 in FEW
20:15 50.6 °F 33.1 °F 29.87 in Calm   4.0 mph 51% 0.00 in FEW
20:30 50.4 °F 32.4 °F 29.88 in Calm   4.0 mph 50% 0.00 in FEW
21:00 49.6 °F 32.2 °F 29.88 in Calm   1.0 mph 51% 0.00 in FEW
21:15 48.8 °F 31.9 °F 29.88 in Calm   1.0 mph 52% 0.00 in FEW
21:30 48.2 °F 31.9 °F 29.88 in Calm   1.0 mph 53% 0.00 in FEW
21:45 48.2 °F 31.4 °F 29.89 in Calm   1.0 mph 52% 0.00 in FEW
22:00 48.0 °F 31.7 °F 29.89 in Calm   2.0 mph 53% 0.00 in FEW
22:15 47.6 °F 30.8 °F 29.89 in NNW 1.0 mph 3.0 mph 52% 0.00 in FEW
22:30 46.9 °F 29.2 °F 29.89 in North 1.0 mph 6.0 mph 50% 0.00 in FEW
22:45 46.9 °F 24.4 °F 29.89 in North 1.0 mph 5.0 mph 41% 0.00 in FEW
23:00 46.6 °F 23.0 °F 29.89 in NW 1.0 mph 6.0 mph 39% 0.00 in FEW
23:15 47.0 °F 21.4 °F 29.88 in North 1.0 mph 4.0 mph 36% 0.00 in FEW
23:30 46.4 °F 20.9 °F 29.88 in Calm   3.0 mph 36% 0.00 in FEW
23:45 46.2 °F 20.7 °F 29.88 in Calm   1.0 mph 36% 0.00 in FEW
TarryTown NY Weather
Compliments of Weather Underground - 1.5 mb